createdAt,value
2018-02-27T00:00:00.316Z,35.90
2018-02-27T00:02:33.006Z,34.70
2018-02-27T00:05:05.467Z,34.70
2018-02-27T00:07:37.016Z,34.80
2018-02-27T00:10:11.816Z,35.00
2018-02-27T00:12:43.706Z,35.10
2018-02-27T00:15:19.256Z,34.60
2018-02-27T00:17:59.815Z,35.10
2018-02-27T00:20:32.076Z,34.50
2018-02-27T00:23:03.435Z,32.80
2018-02-27T00:25:37.655Z,33.30
2018-02-27T00:28:09.058Z,34.40
2018-02-27T00:30:39.215Z,34.30
2018-02-27T00:33:11.285Z,34.60
2018-02-27T00:35:42.425Z,33.80
2018-02-27T00:38:15.045Z,34.60
2018-02-27T00:40:46.835Z,35.70
2018-02-27T00:43:21.085Z,35.90
2018-02-27T00:45:54.465Z,35.90
2018-02-27T00:48:26.345Z,35.60
2018-02-27T00:51:00.176Z,35.70
2018-02-27T00:53:32.304Z,36.20
2018-02-27T00:56:04.576Z,37.20
2018-02-27T00:58:35.655Z,37.50
2018-02-27T01:01:06.035Z,38.10
2018-02-27T01:03:36.966Z,38.30
2018-02-27T01:06:08.758Z,38.10
2018-02-27T01:08:45.798Z,37.50
2018-02-27T01:11:17.276Z,37.50
2018-02-27T01:13:51.616Z,39.10
2018-02-27T01:16:23.576Z,39.90
2018-02-27T01:18:56.195Z,39.90
2018-02-27T01:21:29.915Z,39.70
2018-02-27T01:24:01.976Z,40.20
2018-02-27T01:26:33.116Z,40.10
2018-02-27T01:29:11.586Z,39.30
2018-02-27T01:31:46.066Z,39.60
2018-02-27T01:34:18.526Z,40.20
2018-02-27T01:36:52.140Z,40.20
2018-02-27T01:39:24.606Z,41.10
2018-02-27T01:41:55.748Z,41.70
2018-02-27T01:44:27.822Z,40.80
2018-02-27T01:46:59.876Z,41.20
2018-02-27T01:49:32.216Z,41.10
2018-02-27T01:52:04.006Z,40.70
2018-02-27T01:54:34.805Z,40.50
2018-02-27T01:57:07.346Z,41.10
2018-02-27T01:59:38.766Z,40.20
2018-02-27T02:02:10.616Z,40.50
2018-02-27T02:04:42.986Z,40.50
2018-02-27T02:07:14.536Z,40.40
2018-02-27T02:09:46.787Z,40.40
2018-02-27T02:12:18.565Z,40.00
2018-02-27T02:14:56.066Z,40.80
2018-02-27T02:17:33.796Z,41.20
2018-02-27T02:20:05.765Z,41.20
2018-02-27T02:22:37.989Z,41.50
2018-02-27T02:25:12.105Z,41.50
2018-02-27T02:27:43.136Z,41.70
2018-02-27T02:30:16.636Z,42.40
2018-02-27T02:32:47.685Z,42.90
2018-02-27T02:35:20.966Z,42.30
2018-02-27T02:37:55.295Z,42.70
2018-02-27T02:40:26.636Z,43.10
2018-02-27T02:42:57.836Z,43.10
2018-02-27T02:45:30.246Z,42.50
2018-02-27T02:48:02.156Z,42.70
2018-02-27T02:50:34.287Z,43.20
2018-02-27T02:53:06.175Z,42.90
2018-02-27T02:55:39.796Z,42.80
2018-02-27T02:58:14.464Z,42.80
2018-02-27T03:00:45.796Z,42.70
2018-02-27T03:03:19.046Z,42.70
2018-02-27T03:05:50.826Z,42.60
2018-02-27T03:08:22.866Z,42.40
2018-02-27T03:10:54.274Z,42.70
2018-02-27T03:13:28.116Z,41.60
2018-02-27T03:16:05.457Z,41.90
2018-02-27T03:18:36.336Z,41.40
2018-02-27T03:21:08.157Z,41.50
2018-02-27T03:23:40.736Z,41.80
2018-02-27T03:26:13.106Z,41.80
2018-02-27T03:28:47.555Z,42.60
2018-02-27T03:31:20.296Z,42.70
2018-02-27T03:33:53.080Z,43.40
2018-02-27T03:36:24.636Z,43.40
2018-02-27T03:38:58.755Z,43.60
2018-02-27T03:41:32.836Z,43.30
2018-02-27T03:44:04.616Z,43.00
2018-02-27T03:46:36.166Z,41.80
2018-02-27T03:49:10.486Z,41.50
2018-02-27T03:51:43.175Z,40.90
2018-02-27T03:54:15.367Z,41.20
2018-02-27T03:56:47.496Z,40.80
2018-02-27T03:59:18.634Z,40.90
2018-02-27T04:01:49.975Z,41.00
2018-02-27T04:04:22.596Z,41.10
2018-02-27T04:06:53.945Z,40.70
2018-02-27T04:09:26.388Z,40.60
2018-02-27T04:11:58.256Z,40.40
2018-02-27T04:14:29.806Z,40.40
2018-02-27T04:17:02.486Z,40.90
2018-02-27T04:19:39.815Z,40.90
2018-02-27T04:22:12.037Z,40.50
2018-02-27T04:24:43.585Z,40.30
2018-02-27T04:27:14.666Z,40.30
2018-02-27T04:29:45.511Z,40.20
2018-02-27T04:32:17.736Z,40.30
2018-02-27T04:34:49.086Z,40.40
2018-02-27T04:37:19.516Z,40.40
2018-02-27T04:39:50.675Z,40.40
2018-02-27T04:42:20.155Z,40.30
2018-02-27T04:44:52.046Z,40.70
2018-02-27T04:47:25.918Z,40.00
2018-02-27T04:49:58.586Z,39.70
2018-02-27T04:52:30.396Z,39.50
2018-02-27T04:55:04.255Z,39.90
2018-02-27T04:57:34.826Z,39.90
2018-02-27T05:00:06.125Z,40.70
2018-02-27T05:02:45.156Z,40.80
2018-02-27T05:05:17.125Z,40.80
2018-02-27T05:07:48.359Z,40.80
2018-02-27T05:10:22.576Z,40.80
2018-02-27T05:12:55.185Z,40.90
2018-02-27T05:15:28.240Z,40.90
2018-02-27T05:17:59.896Z,40.40
2018-02-27T05:20:32.156Z,40.50
2018-02-27T05:23:05.153Z,40.70
2018-02-27T05:25:37.326Z,40.70
2018-02-27T05:28:10.816Z,40.50
2018-02-27T05:30:44.096Z,40.20
2018-02-27T05:33:15.287Z,40.30
2018-02-27T05:35:46.885Z,39.80
2018-02-27T05:38:17.935Z,39.80
2018-02-27T05:40:48.465Z,39.70
2018-02-27T05:43:20.427Z,39.20
2018-02-27T05:45:53.156Z,39.10
2018-02-27T05:48:24.556Z,39.10
2018-02-27T05:50:56.816Z,40.20
2018-02-27T05:53:29.196Z,39.50
2018-02-27T05:56:01.046Z,39.70
2018-02-27T05:58:32.606Z,40.40
2018-02-27T06:01:05.504Z,40.50
2018-02-27T06:03:38.586Z,40.60
2018-02-27T06:06:11.379Z,40.70
2018-02-27T06:08:45.066Z,41.20
2018-02-27T06:11:17.136Z,40.90
2018-02-27T06:13:48.717Z,41.40
2018-02-27T06:16:21.366Z,41.40
2018-02-27T06:18:53.985Z,41.50
2018-02-27T06:21:25.695Z,41.50
2018-02-27T06:24:00.315Z,41.80
2018-02-27T06:26:31.768Z,41.00
2018-02-27T06:29:02.646Z,41.10
2018-02-27T06:31:35.595Z,42.00
2018-02-27T06:34:07.856Z,40.50
2018-02-27T06:36:39.006Z,40.70
2018-02-27T06:39:14.546Z,41.30
2018-02-27T06:41:44.605Z,41.30
2018-02-27T06:44:17.286Z,38.70
2018-02-27T06:46:49.606Z,37.70
2018-02-27T06:49:21.366Z,37.40
2018-02-27T06:51:52.545Z,37.30
2018-02-27T06:54:24.776Z,36.50
2018-02-27T06:56:57.466Z,36.50
2018-02-27T06:59:31.155Z,36.50
2018-02-27T07:02:03.157Z,35.70
2018-02-27T07:04:36.415Z,36.10
2018-02-27T07:07:10.416Z,35.60
2018-02-27T07:09:46.826Z,35.50
2018-02-27T07:12:21.006Z,35.80
2018-02-27T07:14:54.095Z,36.80
2018-02-27T07:17:32.615Z,38.60
2018-02-27T07:20:04.776Z,39.80
2018-02-27T07:22:38.055Z,40.00
2018-02-27T07:25:10.115Z,39.20
2018-02-27T07:27:42.187Z,38.30
2018-02-27T07:30:13.768Z,39.80
2018-02-27T07:32:47.176Z,39.20
2018-02-27T07:35:22.867Z,39.20
2018-02-27T07:37:58.126Z,40.20
2018-02-27T07:40:30.815Z,39.50
2018-02-27T07:43:02.376Z,38.80
2018-02-27T07:45:33.236Z,38.80
2018-02-27T07:48:06.286Z,41.00
2018-02-27T07:50:37.735Z,39.60
2018-02-27T07:53:10.226Z,39.30
2018-02-27T07:55:42.326Z,38.40
2018-02-27T07:58:16.184Z,39.10
2018-02-27T08:00:47.315Z,39.10
2018-02-27T08:03:19.386Z,39.40
2018-02-27T08:05:52.477Z,39.80
2018-02-27T08:08:25.855Z,40.60
2018-02-27T08:10:59.687Z,40.60
2018-02-27T08:13:31.026Z,39.90
2018-02-27T08:16:03.796Z,39.60
2018-02-27T08:18:36.166Z,39.40
2018-02-27T08:21:07.016Z,38.80
2018-02-27T08:23:38.387Z,40.20
2018-02-27T08:26:09.706Z,39.60
2018-02-27T08:28:45.246Z,39.10
2018-02-27T08:31:17.858Z,38.10
2018-02-27T08:33:49.160Z,38.30
2018-02-27T08:36:21.866Z,37.20
2018-02-27T08:38:52.866Z,37.20
2018-02-27T08:41:26.495Z,38.10
2018-02-27T08:43:59.476Z,36.80
2018-02-27T08:46:32.986Z,36.80
2018-02-27T08:49:04.636Z,36.80
2018-02-27T08:51:41.520Z,36.80
2018-02-27T08:54:13.456Z,36.20
2018-02-27T08:56:45.126Z,36.10
2018-02-27T08:59:15.964Z,35.20
2018-02-27T09:01:47.278Z,32.90
2018-02-27T09:04:18.346Z,32.90
2018-02-27T09:06:49.886Z,32.70
2018-02-27T09:09:21.435Z,34.10
2018-02-27T09:11:53.226Z,34.80
2018-02-27T09:14:29.305Z,34.80
2018-02-27T09:17:01.806Z,35.30
2018-02-27T09:19:34.425Z,35.50
2018-02-27T09:22:06.306Z,35.70
2018-02-27T09:24:40.526Z,35.20
2018-02-27T09:27:12.357Z,36.10
2018-02-27T09:29:43.716Z,36.00
2018-02-27T09:32:15.485Z,36.00
2018-02-27T09:34:45.166Z,36.30
2018-02-27T09:37:16.827Z,37.00
2018-02-27T09:39:48.376Z,35.90
2018-02-27T09:42:20.366Z,34.90
2018-02-27T09:44:56.298Z,35.40
2018-02-27T09:47:29.786Z,35.40
2018-02-27T09:50:00.415Z,34.50
2018-02-27T09:52:31.587Z,33.80
2018-02-27T09:55:03.616Z,33.20
2018-02-27T09:57:34.686Z,33.60
2018-02-27T10:00:07.326Z,32.80
2018-02-27T10:02:39.466Z,32.80
2018-02-27T10:05:10.416Z,32.80
2018-02-27T10:07:41.593Z,33.30
2018-02-27T10:10:12.956Z,33.30
2018-02-27T10:12:45.894Z,32.80
2018-02-27T10:15:16.951Z,32.90
2018-02-27T10:17:49.526Z,32.60
2018-02-27T10:20:21.706Z,32.80
2018-02-27T10:22:56.635Z,32.30
2018-02-27T10:25:29.205Z,32.60
2018-02-27T10:28:01.876Z,32.10
2018-02-27T10:30:36.718Z,31.70
2018-02-27T10:33:08.266Z,31.60
2018-02-27T10:35:40.536Z,32.20
2018-02-27T10:38:10.805Z,32.10
2018-02-27T10:40:42.665Z,31.40
2018-02-27T10:43:16.865Z,31.50
2018-02-27T10:45:50.776Z,31.80
2018-02-27T10:48:24.954Z,31.80
2018-02-27T10:50:57.635Z,31.10
2018-02-27T10:53:30.105Z,31.50
2018-02-27T10:56:01.256Z,32.10
2018-02-27T10:58:34.166Z,32.30
2018-02-27T11:01:07.666Z,32.90
2018-02-27T11:03:41.145Z,32.80
2018-02-27T11:06:12.905Z,33.70
2018-02-27T11:08:46.077Z,32.80
2018-02-27T11:11:18.294Z,33.30
2018-02-27T11:13:50.474Z,33.00
2018-02-27T11:16:22.475Z,33.40
2018-02-27T11:19:00.075Z,33.50
2018-02-27T11:21:32.135Z,32.20
2018-02-27T11:24:03.984Z,31.90
2018-02-27T11:26:35.165Z,30.70
2018-02-27T11:29:07.595Z,30.00
2018-02-27T11:31:38.735Z,30.00
2018-02-27T11:34:11.457Z,30.50
2018-02-27T11:36:42.989Z,30.50
2018-02-27T11:39:15.685Z,30.00
2018-02-27T11:41:47.516Z,29.90
2018-02-27T11:44:25.845Z,29.30
2018-02-27T11:46:59.895Z,29.20
2018-02-27T11:49:32.615Z,29.20
2018-02-27T11:52:05.586Z,30.70
2018-02-27T11:54:42.175Z,32.00
2018-02-27T11:57:16.995Z,32.40
2018-02-27T11:59:50.176Z,32.40
2018-02-27T12:02:22.257Z,32.50
2018-02-27T12:04:54.106Z,32.30
2018-02-27T12:07:25.874Z,32.30
2018-02-27T12:10:01.566Z,31.90
2018-02-27T12:12:34.495Z,31.90
2018-02-27T12:15:13.264Z,31.80
2018-02-27T12:17:45.725Z,31.80
2018-02-27T12:20:16.464Z,31.70
2018-02-27T12:22:48.586Z,31.50
2018-02-27T12:25:20.056Z,31.50
2018-02-27T12:27:52.347Z,30.20
2018-02-27T12:30:24.826Z,30.60
2018-02-27T12:32:58.867Z,30.50
2018-02-27T12:35:30.355Z,33.90
2018-02-27T12:38:04.415Z,33.80
2018-02-27T12:40:44.116Z,32.20
2018-02-27T12:43:16.684Z,33.60
2018-02-27T12:45:48.436Z,34.50
2018-02-27T12:48:20.915Z,35.10
2018-02-27T12:50:55.336Z,34.90
2018-02-27T12:53:28.556Z,35.40
2018-02-27T12:56:00.436Z,35.30
2018-02-27T12:58:45.035Z,35.60
2018-02-27T13:01:17.319Z,35.40
2018-02-27T13:03:54.316Z,36.90
2018-02-27T13:06:26.195Z,36.90
2018-02-27T13:08:58.525Z,34.90
2018-02-27T13:11:32.116Z,34.50
2018-02-27T13:14:04.876Z,35.20
2018-02-27T13:16:36.647Z,34.70
2018-02-27T13:19:08.006Z,34.90
2018-02-27T13:21:40.166Z,34.20
2018-02-27T13:24:11.445Z,35.00
2018-02-27T13:26:43.485Z,35.10
2018-02-27T13:29:16.817Z,35.50
2018-02-27T13:31:49.925Z,35.80
2018-02-27T13:34:21.871Z,35.00
2018-02-27T13:36:54.546Z,35.50
2018-02-27T13:39:25.955Z,35.00
2018-02-27T13:41:56.766Z,35.00
2018-02-27T13:44:29.665Z,33.90
2018-02-27T13:47:01.228Z,33.80
2018-02-27T13:49:36.399Z,33.30
2018-02-27T13:52:08.582Z,33.80
2018-02-27T13:54:39.496Z,34.70
2018-02-27T13:57:11.135Z,34.70
2018-02-27T13:59:44.366Z,34.30
2018-02-27T14:02:17.496Z,34.30
2018-02-27T14:04:51.497Z,33.70
2018-02-27T14:07:25.006Z,33.80
2018-02-27T14:09:59.890Z,33.70
2018-02-27T14:12:31.307Z,33.50
2018-02-27T14:15:04.356Z,34.10
2018-02-27T14:17:47.196Z,33.20
2018-02-27T14:20:19.876Z,33.20
2018-02-27T14:22:51.655Z,33.70
2018-02-27T14:25:25.865Z,33.00
2018-02-27T14:27:57.805Z,32.60
2018-02-27T14:30:28.945Z,32.30
2018-02-27T14:33:12.986Z,32.40
2018-02-27T14:38:43.456Z,32.50
2018-02-27T14:41:15.186Z,32.90
2018-02-27T14:43:50.531Z,33.00
2018-02-27T14:46:22.271Z,32.90
2018-02-27T14:48:58.456Z,32.90
2018-02-27T14:51:32.886Z,32.90
2018-02-27T14:54:04.246Z,32.40
2018-02-27T14:56:38.896Z,31.80
2018-02-27T14:59:09.946Z,31.90
2018-02-27T15:01:43.760Z,32.70
2018-02-27T15:04:16.610Z,33.80
2018-02-27T15:06:50.476Z,34.60
2018-02-27T15:09:27.201Z,34.00
2018-02-27T15:12:02.488Z,34.60
2018-02-27T15:14:37.091Z,32.50
2018-02-27T15:17:11.514Z,33.50
2018-02-27T15:19:45.852Z,33.00
2018-02-27T15:22:33.775Z,32.90
2018-02-27T15:25:12.091Z,32.90
2018-02-27T15:27:45.586Z,32.10
2018-02-27T15:30:23.226Z,32.40
2018-02-27T15:32:55.845Z,32.60
2018-02-27T15:35:29.656Z,32.60
2018-02-27T15:38:04.606Z,32.20
2018-02-27T15:40:37.618Z,33.00
2018-02-27T15:43:12.091Z,32.60
2018-02-27T15:45:43.445Z,32.50
2018-02-27T15:48:14.630Z,31.40
2018-02-27T15:50:46.950Z,32.20
2018-02-27T15:53:20.148Z,32.10
2018-02-27T15:55:52.742Z,32.20
2018-02-27T15:58:23.956Z,32.30
2018-02-27T16:01:03.884Z,32.60
2018-02-27T16:03:47.904Z,31.60
2018-02-27T16:06:35.709Z,31.60
2018-02-27T16:16:08.231Z,32.60
2018-02-27T16:22:05.108Z,32.20
2018-02-27T16:25:01.876Z,32.60
2018-02-27T16:27:58.876Z,33.10
2018-02-27T16:48:38.826Z,32.90
2018-02-27T16:51:33.887Z,32.90
2018-02-27T16:57:20.945Z,33.00
2018-02-27T17:09:28.221Z,34.00
2018-02-27T17:21:17.848Z,34.90
2018-02-27T17:23:54.898Z,35.00
2018-02-27T17:26:40.418Z,35.10
2018-02-27T17:29:23.422Z,35.60
2018-02-27T17:32:02.554Z,35.50
2018-02-27T17:37:46.887Z,35.90
2018-02-27T17:43:17.215Z,36.40
2018-02-27T17:45:49.276Z,36.20
2018-02-27T17:48:21.407Z,36.30
2018-02-27T17:50:54.087Z,36.30
2018-02-27T17:53:26.046Z,36.30
2018-02-27T17:55:58.316Z,36.70
2018-02-27T17:58:31.136Z,36.80
2018-02-27T18:01:03.066Z,37.00
2018-02-27T18:03:35.686Z,37.00
2018-02-27T18:06:07.937Z,37.00
2018-02-27T18:08:38.696Z,37.00
2018-02-27T18:11:10.828Z,37.60
2018-02-27T18:13:41.846Z,37.60
2018-02-27T18:16:14.826Z,37.70
2018-02-27T18:18:47.794Z,37.60
2018-02-27T18:21:19.802Z,37.90
2018-02-27T18:23:51.256Z,37.80
2018-02-27T18:26:22.935Z,38.00
2018-02-27T18:28:55.246Z,37.90
2018-02-27T18:31:27.858Z,38.00
2018-02-27T18:34:00.746Z,38.10
2018-02-27T18:36:34.405Z,38.20
2018-02-27T18:39:06.886Z,38.30
2018-02-27T18:41:39.576Z,38.30
2018-02-27T18:44:12.198Z,38.30
2018-02-27T18:46:44.856Z,38.40
2018-02-27T18:49:16.596Z,38.40
2018-02-27T18:51:48.026Z,38.30
2018-02-27T18:54:19.926Z,38.40
2018-02-27T18:56:52.466Z,38.20
2018-02-27T18:59:24.625Z,38.40
2018-02-27T19:02:00.686Z,38.50
2018-02-27T19:04:32.348Z,38.40
2018-02-27T19:07:06.656Z,38.30
2018-02-27T19:09:39.346Z,37.90
2018-02-27T19:12:11.196Z,38.10
2018-02-27T19:14:43.706Z,38.20
2018-02-27T19:17:15.855Z,38.30
2018-02-27T19:19:47.336Z,37.70
2018-02-27T19:22:19.246Z,37.40
2018-02-27T19:24:51.506Z,37.40
2018-02-27T19:27:24.497Z,37.30
2018-02-27T19:29:55.027Z,37.20
2018-02-27T19:32:27.605Z,36.60
2018-02-27T19:34:59.665Z,36.50
2018-02-27T19:37:31.944Z,36.60
2018-02-27T19:40:03.188Z,36.20
2018-02-27T19:42:35.147Z,36.20
2018-02-27T19:45:06.596Z,36.40
2018-02-27T19:47:38.386Z,36.40
2018-02-27T19:50:11.845Z,36.70
2018-02-27T19:52:43.446Z,37.50
2018-02-27T19:55:16.088Z,37.40
2018-02-27T19:57:52.137Z,36.90
2018-02-27T20:00:25.536Z,36.40
2018-02-27T20:02:57.336Z,36.80
2018-02-27T20:05:29.297Z,36.20
2018-02-27T20:08:01.655Z,36.20
2018-02-27T20:10:32.909Z,36.70
2018-02-27T20:13:06.957Z,37.00
2018-02-27T20:15:41.507Z,37.10
2018-02-27T20:18:13.975Z,37.10
2018-02-27T20:20:46.456Z,37.10
2018-02-27T20:23:24.448Z,37.60
2018-02-27T20:25:56.945Z,38.20
2018-02-27T20:28:34.007Z,37.30
2018-02-27T20:31:05.667Z,36.90
2018-02-27T20:33:39.766Z,37.00
2018-02-27T20:36:13.817Z,36.40
2018-02-27T20:38:55.916Z,36.30
2018-02-27T20:41:27.775Z,36.90
2018-02-27T20:43:59.326Z,37.30
2018-02-27T20:46:31.046Z,37.80
2018-02-27T20:49:03.557Z,37.40
2018-02-27T20:51:35.316Z,36.70
2018-02-27T20:54:11.066Z,36.40
2018-02-27T20:56:42.586Z,36.50
2018-02-27T20:59:14.876Z,36.90
2018-02-27T21:01:46.986Z,37.20
2018-02-27T21:04:19.598Z,37.60
2018-02-27T21:06:57.916Z,37.90
2018-02-27T21:09:29.765Z,38.10
2018-02-27T21:12:00.967Z,38.10
2018-02-27T21:14:34.516Z,38.40
2018-02-27T21:17:06.196Z,38.70
2018-02-27T21:19:37.396Z,38.70
2018-02-27T21:22:09.707Z,38.60
2018-02-27T21:24:41.946Z,38.60
2018-02-27T21:27:14.666Z,38.50
2018-02-27T21:29:48.327Z,38.50
2018-02-27T21:32:18.756Z,38.50
2018-02-27T21:34:50.757Z,38.20
2018-02-27T21:37:22.786Z,38.40
2018-02-27T21:39:53.307Z,38.40
2018-02-27T21:42:25.926Z,38.60
2018-02-27T21:44:58.196Z,38.70
2018-02-27T21:47:29.706Z,38.70
2018-02-27T21:50:02.198Z,38.90
2018-02-27T21:52:34.395Z,38.20
2018-02-27T21:55:07.926Z,39.50
2018-02-27T21:57:44.616Z,39.00
2018-02-27T22:00:18.316Z,39.20
2018-02-27T22:02:52.476Z,39.30
2018-02-27T22:05:25.619Z,39.30
2018-02-27T22:07:57.576Z,39.40
2018-02-27T22:10:29.336Z,39.20
2018-02-27T22:13:03.927Z,39.50
2018-02-27T22:15:35.606Z,39.40
2018-02-27T22:18:06.796Z,39.40
2018-02-27T22:20:38.996Z,39.40
2018-02-27T22:23:10.067Z,39.20
2018-02-27T22:25:42.889Z,39.10
2018-02-27T22:28:14.976Z,39.10
2018-02-27T22:30:47.286Z,39.20
2018-02-27T22:33:19.487Z,39.60
2018-02-27T22:35:51.406Z,39.70
2018-02-27T22:38:22.656Z,39.70
2018-02-27T22:40:56.956Z,39.70
2018-02-27T22:43:28.726Z,39.40
2018-02-27T22:46:00.376Z,39.60
2018-02-27T22:48:32.746Z,39.20
2018-02-27T22:51:06.475Z,38.80
2018-02-27T22:53:39.446Z,39.10
2018-02-27T22:56:13.136Z,39.10
2018-02-27T22:58:46.336Z,39.00
2018-02-27T23:01:18.096Z,39.20
2018-02-27T23:03:51.426Z,39.80
2018-02-27T23:06:22.215Z,39.80
2018-02-27T23:08:53.816Z,39.60
2018-02-27T23:11:25.000Z,39.50
2018-02-27T23:13:57.386Z,39.00
2018-02-27T23:16:34.935Z,38.90
2018-02-27T23:19:08.196Z,39.20
2018-02-27T23:21:40.955Z,39.20
2018-02-27T23:24:28.687Z,38.90
2018-02-27T23:27:09.935Z,38.60
2018-02-27T23:29:46.501Z,38.60
2018-02-27T23:32:24.027Z,38.80
2018-02-27T23:34:59.876Z,38.60
2018-02-27T23:37:33.516Z,38.20
2018-02-27T23:40:04.910Z,38.20
2018-02-27T23:42:35.945Z,38.20
2018-02-27T23:45:10.105Z,38.10
2018-02-27T23:47:44.196Z,38.80
2018-02-27T23:50:18.305Z,39.60
2018-02-27T23:52:51.416Z,38.20
2018-02-27T23:55:23.355Z,38.90
2018-02-27T23:57:54.806Z,39.20
